Time;durP1;ratioP1;P1;durP2;ratioP2;P2;SDS_P1;SDS_P2;PMS_P1;PMS_P2;Temp;Humidity;BMP_temperature;BMP_pressure;BME280_temperature;BME280_humidity;BME280_pressure;Samples;Min_cycle;Max_cycle;Signal;HPM_P1;HPM_P2
2023/05/30 00:01:13;;;;;;;39.30;13.10;;;;;;;;;;6186804;23;20030;-79
2023/05/30 00:03:39;;;;;;;36.83;13.02;;;;;;;;;;6186628;23;20496;-79
2023/05/30 00:06:05;;;;;;;31.80;12.38;;;;;;;;;;6187015;23;20369;-79
2023/05/30 00:08:31;;;;;;;35.08;11.48;;;;;;;;;;6186991;23;20059;-78
2023/05/30 00:10:56;;;;;;;29.30;11.68;;;;;;;;;;6186772;23;20017;-79
2023/05/30 00:13:22;;;;;;;31.80;11.85;;;;;;;;;;6213320;23;20008;-79
2023/05/30 00:15:51;;;;;;;43.15;12.57;;;;;;;;;;6137482;23;20009;-78
2023/05/30 00:18:16;;;;;;;41.88;13.23;;;;;;;;;;6187781;23;20001;-78
2023/05/30 00:20:44;;;;;;;35.53;11.93;;;;;;;;;;6186855;23;20008;-79
2023/05/30 00:23:10;;;;;;;43.35;12.25;;;;;;;;;;6162886;23;20503;-79
2023/05/30 00:25:37;;;;;;;34.30;12.93;;;;;;;;;;6186452;23;20007;-79
2023/05/30 00:28:02;;;;;;;30.98;11.20;;;;;;;;;;6162788;23;20469;-79
2023/05/30 00:30:27;;;;;;;34.80;11.90;;;;;;;;;;6186806;23;20020;-79
2023/05/30 00:32:54;;;;;;;36.47;12.90;;;;;;;;;;6186797;23;20075;-80
2023/05/30 00:35:19;;;;;;;31.95;11.63;;;;;;;;;;6186871;23;20011;-78
2023/05/30 00:37:44;;;;;;;23.17;10.95;;;;;;;;;;6213295;23;20079;-79
2023/05/30 00:40:11;;;;;;;28.17;11.93;;;;;;;;;;6212764;23;20005;-79
2023/05/30 00:42:37;;;;;;;24.55;11.68;;;;;;;;;;6162540;23;20004;-78
2023/05/30 00:45:03;;;;;;;28.42;10.82;;;;;;;;;;6186680;23;20054;-79
2023/05/30 00:47:28;;;;;;;32.47;11.30;;;;;;;;;;6213498;23;20001;-79
2023/05/30 00:49:53;;;;;;;30.92;12.43;;;;;;;;;;6187495;23;20055;-79
2023/05/30 00:52:19;;;;;;;33.60;12.18;;;;;;;;;;6215391;23;20007;-79
2023/05/30 00:54:44;;;;;;;43.38;11.45;;;;;;;;;;6163729;23;20398;-78
2023/05/30 00:57:10;;;;;;;28.70;11.55;;;;;;;;;;6161164;23;20482;-78
2023/05/30 00:59:35;;;;;;;34.47;11.38;;;;;;;;;;6138819;23;20012;-78
2023/05/30 01:02:02;;;;;;;27.15;10.93;;;;;;;;;;6163512;23;20444;-79
2023/05/30 01:04:27;;;;;;;28.33;11.13;;;;;;;;;;6164078;23;20088;-79
2023/05/30 01:06:53;;;;;;;34.58;11.55;;;;;;;;;;6188505;23;20001;-79
2023/05/30 01:09:18;;;;;;;28.30;11.90;;;;;;;;;;6138875;23;20019;-79
2023/05/30 01:12:11;;;;;;;29.88;11.65;;;;;;;;;;6138896;23;20031;-79
2023/05/30 01:14:46;;;;;;;21.92;11.23;;;;;;;;;;6173068;23;20063;-78
2023/05/30 01:17:23;;;;;;;36.95;13.02;;;;;;;;;;6214931;23;20009;-78
2023/05/30 01:20:07;;;;;;;29.00;12.32;;;;;;;;;;6188536;23;20055;-79
2023/05/30 01:22:48;;;;;;;28.15;12.00;;;;;;;;;;6164295;23;20028;-79
2023/05/30 01:25:35;;;;;;;25.98;11.85;;;;;;;;;;6214862;23;20000;-79
2023/05/30 01:28:09;;;;;;;29.90;11.80;;;;;;;;;;6139737;23;20011;-80
2023/05/30 01:30:55;;;;;;;25.70;11.75;;;;;;;;;;6163955;23;20004;-79
2023/05/30 01:33:21;;;;;;;24.23;12.32;;;;;;;;;;6213971;23;20009;-79
2023/05/30 01:35:47;;;;;;;26.45;12.48;;;;;;;;;;6163515;23;19992;-78
2023/05/30 01:38:12;;;;;;;26.25;12.18;;;;;;;;;;6138928;23;20355;-79
2023/05/30 01:40:38;;;;;;;30.33;12.25;;;;;;;;;;6163214;23;20012;-78
2023/05/30 01:43:43;;;;;;;32.58;12.02;;;;;;;;;;6188192;23;20427;-79
2023/05/30 01:46:36;;;;;;;35.10;13.73;;;;;;;;;;6191595;23;20015;-79
2023/05/30 01:49:10;;;;;;;35.20;13.20;;;;;;;;;;6188285;23;20032;-79
2023/05/30 01:51:47;;;;;;;26.67;12.93;;;;;;;;;;6187693;23;20011;-78
2023/05/30 01:54:15;;;;;;;25.15;13.32;;;;;;;;;;6188118;23;20011;-78
2023/05/30 01:56:40;;;;;;;34.45;13.05;;;;;;;;;;6139501;23;20000;-78
2023/05/30 01:59:05;;;;;;;31.73;12.98;;;;;;;;;;6135603;23;20004;-78
2023/05/30 02:01:31;;;;;;;28.58;12.90;;;;;;;;;;6162354;23;20346;-78
2023/05/30 02:03:56;;;;;;;27.02;13.00;;;;;;;;;;6188000;23;20012;-78
2023/05/30 02:06:22;;;;;;;31.83;12.93;;;;;;;;;;6162904;23;20126;-79
2023/05/30 02:08:47;;;;;;;32.00;13.80;;;;;;;;;;6188135;23;20098;-79
2023/05/30 02:11:13;;;;;;;29.63;13.88;;;;;;;;;;6214534;23;20008;-78
2023/05/30 02:13:38;;;;;;;30.80;13.65;;;;;;;;;;6214766;23;20010;-78
2023/05/30 02:16:04;;;;;;;31.70;13.90;;;;;;;;;;6214417;23;20331;-77
2023/05/30 02:18:29;;;;;;;36.40;14.38;;;;;;;;;;6163278;23;20526;-77
2023/05/30 02:20:55;;;;;;;33.17;13.20;;;;;;;;;;6214036;23;20004;-77
2023/05/30 02:23:21;;;;;;;37.13;14.20;;;;;;;;;;6214388;23;20055;-78
2023/05/30 02:25:46;;;;;;;27.60;14.05;;;;;;;;;;6187874;23;20389;-77
2023/05/30 02:28:11;;;;;;;33.97;14.15;;;;;;;;;;6187579;23;20016;-78
2023/05/30 02:30:37;;;;;;;31.77;13.88;;;;;;;;;;6214212;23;20004;-78
2023/05/30 02:33:03;;;;;;;31.48;13.68;;;;;;;;;;6187835;23;20067;-79
2023/05/30 02:35:28;;;;;;;31.27;12.90;;;;;;;;;;6187341;23;19997;-79
2023/05/30 02:37:53;;;;;;;35.28;13.80;;;;;;;;;;6187820;23;20005;-78
2023/05/30 02:40:19;;;;;;;31.30;13.85;;;;;;;;;;6162888;23;20009;-79
2023/05/30 02:42:44;;;;;;;28.42;14.35;;;;;;;;;;6187727;23;20007;-78
2023/05/30 02:45:10;;;;;;;37.70;13.80;;;;;;;;;;6162968;23;20352;-79
2023/05/30 02:47:35;;;;;;;27.48;13.18;;;;;;;;;;6162900;23;20352;-79
2023/05/30 02:50:01;;;;;;;34.55;13.90;;;;;;;;;;6187193;23;20004;-79
2023/05/30 02:52:26;;;;;;;28.05;13.13;;;;;;;;;;6187777;23;20368;-79
2023/05/30 02:54:52;;;;;;;33.45;14.35;;;;;;;;;;6187518;23;20084;-78
2023/05/30 02:57:19;;;;;;;34.15;14.13;;;;;;;;;;6214101;23;20056;-79
2023/05/30 02:59:44;;;;;;;42.20;14.95;;;;;;;;;;6161239;23;20439;-78
2023/05/30 03:02:10;;;;;;;36.22;14.75;;;;;;;;;;6162332;23;20000;-78
2023/05/30 03:04:36;;;;;;;42.85;14.80;;;;;;;;;;6187557;23;20008;-78
2023/05/30 03:07:02;;;;;;;42.92;14.30;;;;;;;;;;6187793;23;20001;-78
2023/05/30 03:09:27;;;;;;;31.63;14.27;;;;;;;;;;6214255;23;20393;-77
2023/05/30 03:11:53;;;;;;;35.42;14.75;;;;;;;;;;6187630;23;20005;-79
2023/05/30 03:14:20;;;;;;;35.28;15.52;;;;;;;;;;6214531;23;20032;-77
2023/05/30 03:16:45;;;;;;;32.80;14.57;;;;;;;;;;6162797;23;20005;-77
2023/05/30 03:19:11;;;;;;;33.58;15.40;;;;;;;;;;6187112;23;20031;-78
2023/05/30 03:21:37;;;;;;;31.63;15.35;;;;;;;;;;6187209;23;20001;-78
2023/05/30 03:24:04;;;;;;;29.60;15.48;;;;;;;;;;6187501;23;20082;-78
2023/05/30 03:26:29;;;;;;;41.20;15.50;;;;;;;;;;6213655;23;19997;-78
2023/05/30 03:28:55;;;;;;;34.50;16.85;;;;;;;;;;6162289;23;20011;-78
2023/05/30 03:31:20;;;;;;;41.05;15.45;;;;;;;;;;6213591;23;20001;-78
2023/05/30 03:33:46;;;;;;;40.97;15.88;;;;;;;;;;6162409;23;20028;-78
2023/05/30 03:36:11;;;;;;;41.58;16.23;;;;;;;;;;6187157;23;20004;-78
2023/05/30 03:38:37;;;;;;;36.63;15.38;;;;;;;;;;6213596;23;20343;-79
2023/05/30 03:41:03;;;;;;;33.63;13.88;;;;;;;;;;6137497;23;20009;-79
2023/05/30 03:43:28;;;;;;;36.03;15.27;;;;;;;;;;6162617;23;20054;-79
2023/05/30 03:45:54;;;;;;;30.75;14.27;;;;;;;;;;6213599;23;20391;-80
2023/05/30 03:48:19;;;;;;;36.55;14.55;;;;;;;;;;6186759;23;20391;-79
2023/05/30 03:50:45;;;;;;;43.22;14.68;;;;;;;;;;6162408;23;20420;-78
2023/05/30 03:53:10;;;;;;;37.03;13.07;;;;;;;;;;6162337;23;20008;-78
2023/05/30 03:55:36;;;;;;;39.78;14.07;;;;;;;;;;6162399;23;20004;-78
2023/05/30 03:58:01;;;;;;;32.53;12.52;;;;;;;;;;6213486;23;20030;-79
2023/05/30 04:00:26;;;;;;;30.88;13.15;;;;;;;;;;6162260;23;20012;-79
2023/05/30 04:02:53;;;;;;;33.53;12.77;;;;;;;;;;6184204;23;20454;-79
2023/05/30 04:05:19;;;;;;;32.22;13.52;;;;;;;;;;6187353;23;20013;-79
2023/05/30 04:07:44;;;;;;;31.92;14.38;;;;;;;;;;6186875;23;20486;-79
2023/05/30 04:10:10;;;;;;;32.75;13.52;;;;;;;;;;6187173;23;20040;-79
2023/05/30 04:12:35;;;;;;;29.27;13.23;;;;;;;;;;6186882;23;20031;-77
2023/05/30 04:15:01;;;;;;;30.45;14.00;;;;;;;;;;6213848;23;20450;-79
2023/05/30 04:17:28;;;;;;;40.63;15.05;;;;;;;;;;6160043;23;20004;-79
2023/05/30 04:19:54;;;;;;;41.88;15.10;;;;;;;;;;6213078;23;20432;-79
2023/05/30 04:22:19;;;;;;;38.13;14.93;;;;;;;;;;6185489;23;20008;-79
2023/05/30 04:24:45;;;;;;;40.72;13.77;;;;;;;;;;6187027;23;20036;-79
2023/05/30 04:27:13;;;;;;;37.40;13.77;;;;;;;;;;6164186;23;20040;-79
2023/05/30 04:29:40;;;;;;;29.65;13.32;;;;;;;;;;6189173;23;20032;-79
2023/05/30 04:32:06;;;;;;;33.60;12.57;;;;;;;;;;6163491;23;20005;-78
2023/05/30 04:34:32;;;;;;;34.10;14.23;;;;;;;;;;6215286;23;20001;-79
2023/05/30 04:36:57;;;;;;;35.15;12.68;;;;;;;;;;6188445;23;20008;-79
2023/05/30 04:39:23;;;;;;;48.60;14.20;;;;;;;;;;6214787;23;20371;-81
2023/05/30 04:41:49;;;;;;;29.65;13.27;;;;;;;;;;6188328;23;20009;-80
2023/05/30 04:44:16;;;;;;;36.05;13.68;;;;;;;;;;6134895;23;20070;-80
2023/05/30 04:46:46;;;;;;;30.40;12.25;;;;;;;;;;6161995;23;20000;-80
2023/05/30 04:49:15;;;;;;;33.15;12.55;;;;;;;;;;6164670;23;20005;-79
2023/05/30 04:51:41;;;;;;;26.48;11.40;;;;;;;;;;6188361;23;20001;-80
2023/05/30 04:54:10;;;;;;;25.25;12.05;;;;;;;;;;6187826;23;20178;-80
2023/05/30 04:56:37;;;;;;;28.63;11.68;;;;;;;;;;6193331;23;19997;-79
2023/05/30 04:59:02;;;;;;;29.95;12.20;;;;;;;;;;6213519;23;20024;-80
2023/05/30 05:01:30;;;;;;;28.10;12.10;;;;;;;;;;6209184;23;20001;-78
2023/05/30 05:04:00;;;;;;;27.83;12.05;;;;;;;;;;6210157;23;20070;-81
2023/05/30 05:06:25;;;;;;;33.63;12.48;;;;;;;;;;6184034;23;20011;-80
2023/05/30 05:08:51;;;;;;;26.05;11.05;;;;;;;;;;6211765;23;20000;-80
2023/05/30 05:11:21;;;;;;;22.25;11.00;;;;;;;;;;6181896;23;20004;-80
2023/05/30 05:13:47;;;;;;;27.52;11.35;;;;;;;;;;6209312;23;20650;-82
2023/05/30 05:16:12;;;;;;;21.30;10.73;;;;;;;;;;6208474;23;20074;-80
2023/05/30 05:18:38;;;;;;;40.10;12.50;;;;;;;;;;6180689;23;20011;-81
2023/05/30 05:21:05;;;;;;;22.92;11.75;;;;;;;;;;6180175;23;20005;-80
2023/05/30 05:23:31;;;;;;;30.38;11.73;;;;;;;;;;6184923;23;20027;-80
2023/05/30 05:25:57;;;;;;;22.50;12.15;;;;;;;;;;6208786;23;20031;-80
2023/05/30 05:28:22;;;;;;;23.88;11.52;;;;;;;;;;6209091;23;20008;-79
2023/05/30 05:30:48;;;;;;;26.60;10.85;;;;;;;;;;6209893;23;20320;-79
2023/05/30 05:33:15;;;;;;;21.08;9.80;;;;;;;;;;6185040;23;20064;-79
2023/05/30 05:35:40;;;;;;;25.15;9.80;;;;;;;;;;6184243;23;20011;-80
2023/05/30 05:38:06;;;;;;;24.60;10.05;;;;;;;;;;6210741;23;20032;-79
2023/05/30 05:40:31;;;;;;;25.52;9.88;;;;;;;;;;6212572;23;20007;-79
2023/05/30 05:42:57;;;;;;;27.90;10.23;;;;;;;;;;6211515;23;20005;-80
2023/05/30 05:45:22;;;;;;;30.17;9.98;;;;;;;;;;6212588;23;20337;-79
2023/05/30 05:47:48;;;;;;;21.90;10.73;;;;;;;;;;6184366;23;20405;-79
2023/05/30 05:50:13;;;;;;;21.88;10.27;;;;;;;;;;6186340;23;20035;-80
2023/05/30 05:52:40;;;;;;;23.48;10.18;;;;;;;;;;6187303;23;20011;-79
2023/05/30 05:55:06;;;;;;;25.45;10.48;;;;;;;;;;6213093;23;20015;-79
2023/05/30 05:57:31;;;;;;;20.60;9.80;;;;;;;;;;6213975;23;20332;-79
2023/05/30 05:59:56;;;;;;;20.48;10.27;;;;;;;;;;6217737;23;20012;-80
2023/05/30 06:02:22;;;;;;;21.13;10.02;;;;;;;;;;6187491;23;20008;-80
2023/05/30 06:04:47;;;;;;;21.85;9.90;;;;;;;;;;6187594;23;20338;-79
2023/05/30 06:07:13;;;;;;;21.48;9.88;;;;;;;;;;6212315;23;20007;-78
2023/05/30 06:09:38;;;;;;;20.13;9.70;;;;;;;;;;6186993;23;20001;-79
2023/05/30 06:12:05;;;;;;;20.20;9.27;;;;;;;;;;6187504;23;20007;-80
2023/05/30 06:14:31;;;;;;;22.40;8.93;;;;;;;;;;6209703;23;20012;-79
2023/05/30 06:16:56;;;;;;;22.08;8.90;;;;;;;;;;6211688;23;20087;-79
2023/05/30 06:19:22;;;;;;;20.25;9.18;;;;;;;;;;6211654;23;20040;-79
2023/05/30 06:21:47;;;;;;;19.23;8.63;;;;;;;;;;6211976;23;20343;-80
2023/05/30 06:24:13;;;;;;;15.30;8.73;;;;;;;;;;6186193;23;20015;-78
2023/05/30 06:26:38;;;;;;;14.43;8.55;;;;;;;;;;6185143;23;20075;-78
2023/05/30 06:29:04;;;;;;;18.02;8.80;;;;;;;;;;6213987;23;20012;-78
2023/05/30 06:31:29;;;;;;;13.57;7.90;;;;;;;;;;6214378;23;20039;-80
2023/05/30 06:33:55;;;;;;;15.00;7.45;;;;;;;;;;6213789;23;20008;-80
2023/05/30 06:36:20;;;;;;;17.67;9.32;;;;;;;;;;6211993;23;20409;-80
2023/05/30 06:38:46;;;;;;;17.33;9.10;;;;;;;;;;6211637;23;20004;-79
2023/05/30 06:41:12;;;;;;;15.55;8.00;;;;;;;;;;6211189;23;20024;-80
2023/05/30 06:43:38;;;;;;;12.45;7.30;;;;;;;;;;6184564;23;20009;-80
2023/05/30 06:46:05;;;;;;;21.35;7.78;;;;;;;;;;6210336;23;20526;-80
2023/05/30 06:48:30;;;;;;;16.95;7.60;;;;;;;;;;6183425;23;20016;-80
2023/05/30 06:50:56;;;;;;;14.60;7.95;;;;;;;;;;6184520;23;20445;-79
2023/05/30 06:53:21;;;;;;;19.15;8.07;;;;;;;;;;6184481;23;20000;-81
2023/05/30 06:55:46;;;;;;;17.77;7.30;;;;;;;;;;6210878;23;20008;-81
2023/05/30 06:58:12;;;;;;;18.35;7.15;;;;;;;;;;6185208;23;20001;-82
2023/05/30 07:00:38;;;;;;;13.38;7.03;;;;;;;;;;6212550;23;20005;-80
2023/05/30 07:03:03;;;;;;;15.60;6.85;;;;;;;;;;6212540;23;20362;-82
2023/05/30 07:05:29;;;;;;;15.68;7.32;;;;;;;;;;6184443;23;20009;-82
2023/05/30 07:07:55;;;;;;;10.35;6.45;;;;;;;;;;6210505;23;20344;-81
2023/05/30 07:10:23;;;;;;;11.50;6.28;;;;;;;;;;6184297;23;20013;-82
2023/05/30 07:12:49;;;;;;;12.30;6.97;;;;;;;;;;6210686;23;20095;-79
2023/05/30 07:15:14;;;;;;;10.48;6.47;;;;;;;;;;6184591;23;20008;-79
2023/05/30 07:17:40;;;;;;;10.25;7.00;;;;;;;;;;6211318;23;20100;-79
2023/05/30 07:20:06;;;;;;;10.23;6.32;;;;;;;;;;6212868;23;20012;-79
2023/05/30 07:22:31;;;;;;;12.43;6.68;;;;;;;;;;6213027;23;20477;-79
2023/05/30 07:24:57;;;;;;;19.30;7.40;;;;;;;;;;6213180;23;20062;-79
2023/05/30 07:27:23;;;;;;;11.30;6.63;;;;;;;;;;6212668;23;20424;-79
2023/05/30 07:29:51;;;;;;;10.68;6.78;;;;;;;;;;6211396;23;20339;-79
2023/05/30 07:32:16;;;;;;;12.70;6.45;;;;;;;;;;6208904;23;20024;-79
2023/05/30 07:34:42;;;;;;;14.80;6.63;;;;;;;;;;6157800;23;20337;-77
2023/05/30 07:37:08;;;;;;;16.77;6.93;;;;;;;;;;6205904;23;20087;-81
2023/05/30 07:39:34;;;;;;;13.63;7.25;;;;;;;;;;6180613;23;20005;-78
2023/05/30 07:42:00;;;;;;;11.02;6.80;;;;;;;;;;6181061;23;20001;-80
2023/05/30 07:44:26;;;;;;;11.45;6.38;;;;;;;;;;6206513;23;20005;-80
2023/05/30 07:46:51;;;;;;;9.88;6.70;;;;;;;;;;6179888;23;20020;-79
2023/05/30 07:49:18;;;;;;;15.80;6.78;;;;;;;;;;6155284;23;20004;-79
2023/05/30 07:51:44;;;;;;;10.38;7.40;;;;;;;;;;6154427;23;20004;-78
2023/05/30 07:54:09;;;;;;;9.38;6.90;;;;;;;;;;6179878;23;20007;-80
2023/05/30 07:56:35;;;;;;;10.90;7.22;;;;;;;;;;6204107;23;20001;-80
2023/05/30 07:59:00;;;;;;;13.20;6.72;;;;;;;;;;6177941;23;20005;-79
2023/05/30 08:01:27;;;;;;;14.70;7.72;;;;;;;;;;6205115;23;20503;-80
2023/05/30 08:03:54;;;;;;;17.73;6.90;;;;;;;;;;6207203;23;20090;-79
2023/05/30 08:06:20;;;;;;;14.38;7.07;;;;;;;;;;6180414;23;20004;-78
2023/05/30 08:08:46;;;;;;;9.98;6.30;;;;;;;;;;6158252;23;20169;-79
2023/05/30 08:11:13;;;;;;;8.48;6.80;;;;;;;;;;6211166;23;20083;-79
2023/05/30 08:13:39;;;;;;;14.83;7.00;;;;;;;;;;6184888;23;20009;-80
2023/05/30 08:16:09;;;;;;;9.15;6.20;;;;;;;;;;6210761;23;20503;-78
2023/05/30 08:18:36;;;;;;;7.72;5.32;;;;;;;;;;6183280;23;20327;-79
2023/05/30 08:21:01;;;;;;;13.82;6.35;;;;;;;;;;6208916;23;19997;-79
2023/05/30 08:23:30;;;;;;;10.18;6.07;;;;;;;;;;6206532;23;20015;-82
2023/05/30 08:25:56;;;;;;;8.98;6.18;;;;;;;;;;6207701;23;20001;-80
2023/05/30 08:28:24;;;;;;;12.95;6.25;;;;;;;;;;6206548;23;19996;-79
2023/05/30 08:30:50;;;;;;;11.48;6.63;;;;;;;;;;6155969;23;20008;-79
2023/05/30 08:33:18;;;;;;;13.57;5.80;;;;;;;;;;6207671;23;20004;-80
2023/05/30 08:35:45;;;;;;;14.10;6.50;;;;;;;;;;6156796;23;20004;-79
2023/05/30 08:38:10;;;;;;;10.30;5.82;;;;;;;;;;6208056;23;20001;-78
2023/05/30 08:40:36;;;;;;;10.38;5.88;;;;;;;;;;6209929;23;20404;-80
2023/05/30 08:43:02;;;;;;;8.50;5.75;;;;;;;;;;6184967;23;20390;-78
2023/05/30 08:45:27;;;;;;;10.88;5.70;;;;;;;;;;6184839;23;20083;-79
2023/05/30 08:51:06;;;;;;;7.78;5.55;;;;;;;;;;6172790;23;20050;-81
2023/05/30 08:53:34;;;;;;;6.25;5.03;;;;;;;;;;6162037;23;20004;-83
2023/05/30 08:56:08;;;;;;;10.07;5.50;;;;;;;;;;6167350;23;20012;-83
2023/05/30 08:58:37;;;;;;;7.97;5.60;;;;;;;;;;6161638;23;20005;-81
2023/05/30 09:01:08;;;;;;;6.68;5.03;;;;;;;;;;6160911;23;20063;-82
2023/05/30 09:03:37;;;;;;;11.68;4.70;;;;;;;;;;6211351;23;20046;-78
2023/05/30 09:08:51;;;;;;;6.50;4.50;;;;;;;;;;6190681;23;20081;-82
2023/05/30 09:11:18;;;;;;;6.80;4.60;;;;;;;;;;6209377;23;20459;-82
2023/05/30 09:13:43;;;;;;;7.03;4.32;;;;;;;;;;6210864;23;20036;-82
2023/05/30 09:16:09;;;;;;;5.43;4.45;;;;;;;;;;6210532;23;20005;-80
2023/05/30 09:18:35;;;;;;;6.53;5.07;;;;;;;;;;6211136;23;20079;-81
2023/05/30 09:21:00;;;;;;;9.10;4.68;;;;;;;;;;6210630;23;20009;-81
2023/05/30 09:23:26;;;;;;;9.52;4.65;;;;;;;;;;6211597;23;20383;-81
2023/05/30 09:25:55;;;;;;;6.10;4.68;;;;;;;;;;6214011;23;20005;-80
2023/05/30 09:28:24;;;;;;;;;;;;;;;;;;6188008;23;20009;-80
2023/05/30 09:30:54;;;;;;;6.57;4.70;;;;;;;;;;6215410;23;19907;-81
2023/05/30 09:33:45;;;;;;;9.07;5.13;;;;;;;;;;6210152;23;20408;-83
2023/05/30 09:36:18;;;;;;;7.05;4.78;;;;;;;;;;6217715;23;20001;-82
2023/05/30 09:38:59;;;;;;;8.70;5.05;;;;;;;;;;6215534;23;20065;-81
2023/05/30 09:41:25;;;;;;;8.43;5.07;;;;;;;;;;6215149;23;20011;-82
2023/05/30 09:43:57;;;;;;;6.53;4.93;;;;;;;;;;6211149;23;20011;-81
2023/05/30 09:46:30;;;;;;;6.72;5.05;;;;;;;;;;6213736;23;20086;-78
2023/05/30 09:48:55;;;;;;;7.13;4.63;;;;;;;;;;6211665;23;20001;-79
2023/05/30 09:54:42;;;;;;;6.82;5.00;;;;;;;;;;6216644;23;20434;-82
2023/05/30 09:57:08;;;;;;;6.45;4.53;;;;;;;;;;6187376;23;20013;-81
2023/05/30 09:59:42;;;;;;;6.60;5.30;;;;;;;;;;6210591;23;20009;-81
2023/05/30 10:02:11;;;;;;;8.60;5.00;;;;;;;;;;6209779;23;20123;-81
2023/05/30 10:04:36;;;;;;;7.32;5.40;;;;;;;;;;6207084;23;20004;-82
2023/05/30 10:07:02;;;;;;;5.65;4.80;;;;;;;;;;6158645;23;20000;-82
2023/05/30 10:09:27;;;;;;;7.78;4.90;;;;;;;;;;6209771;23;20036;-83
2023/05/30 10:11:53;;;;;;;8.55;4.93;;;;;;;;;;6208859;23;20614;-81
2023/05/30 10:14:18;;;;;;;9.25;4.85;;;;;;;;;;6185228;23;20004;-81
2023/05/30 10:16:47;;;;;;;8.38;4.65;;;;;;;;;;6212390;23;20005;-81
2023/05/30 10:19:20;;;;;;;9.52;5.03;;;;;;;;;;6209154;23;20005;-82
2023/05/30 10:21:46;;;;;;;9.13;4.60;;;;;;;;;;6187470;23;20095;-81
2023/05/30 10:24:13;;;;;;;10.02;4.88;;;;;;;;;;6183247;23;20432;-80
2023/05/30 10:26:42;;;;;;;11.07;5.40;;;;;;;;;;6213612;23;19996;-81
2023/05/30 10:29:11;;;;;;;8.02;4.90;;;;;;;;;;6187261;23;20534;-82
2023/05/30 10:31:36;;;;;;;8.32;4.80;;;;;;;;;;6186167;23;19996;-81
2023/05/30 10:34:02;;;;;;;5.43;4.93;;;;;;;;;;6184582;23;20011;-80
2023/05/30 10:36:28;;;;;;;6.70;4.70;;;;;;;;;;6186460;23;20016;-81
2023/05/30 10:39:08;;;;;;;10.02;4.88;;;;;;;;;;6186328;23;20068;-82
2023/05/30 10:41:59;;;;;;;7.47;4.70;;;;;;;;;;6210486;23;20063;-83
2023/05/30 10:44:57;;;;;;;7.05;5.22;;;;;;;;;;6210373;23;20012;-81
2023/05/30 10:47:31;;;;;;;8.07;5.25;;;;;;;;;;6209436;23;20019;-82
2023/05/30 10:49:57;;;;;;;7.60;5.47;;;;;;;;;;6208178;23;20016;-82
2023/05/30 10:52:32;;;;;;;12.15;5.30;;;;;;;;;;6182405;23;20081;-83
2023/05/30 10:54:58;;;;;;;8.77;4.55;;;;;;;;;;6212897;23;20011;-82
2023/05/30 10:57:25;;;;;;;6.03;4.80;;;;;;;;;;6182271;23;20012;-82
2023/05/30 11:00:19;;;;;;;7.97;4.63;;;;;;;;;;6181738;23;20091;-82
2023/05/30 11:02:49;;;;;;;6.38;5.10;;;;;;;;;;6202993;23;20084;-82
2023/05/30 11:05:23;;;;;;;9.18;4.75;;;;;;;;;;6208827;23;20008;-81
2023/05/30 11:07:48;;;;;;;12.75;5.50;;;;;;;;;;6209218;23;20028;-82
2023/05/30 11:10:15;;;;;;;7.43;5.50;;;;;;;;;;6209958;23;20004;-81
2023/05/30 11:12:43;;;;;;;7.38;5.20;;;;;;;;;;6208228;23;20020;-80
2023/05/30 11:15:09;;;;;;;7.78;5.32;;;;;;;;;;6185725;23;20000;-82
2023/05/30 11:17:35;;;;;;;8.90;4.55;;;;;;;;;;6159462;23;20321;-81
2023/05/30 11:20:14;;;;;;;6.03;4.38;;;;;;;;;;6160267;23;20016;-80
2023/05/30 11:22:40;;;;;;;10.32;5.20;;;;;;;;;;6216098;23;20000;-82
2023/05/30 11:25:25;;;;;;;10.18;4.80;;;;;;;;;;6208415;23;20067;-82
2023/05/30 11:28:15;;;;;;;7.05;4.93;;;;;;;;;;6207748;23;20001;-79
2023/05/30 11:30:47;;;;;;;7.45;5.07;;;;;;;;;;6209895;23;20004;-81
2023/05/30 11:33:19;;;;;;;6.47;4.90;;;;;;;;;;6159727;23;20009;-81
2023/05/30 11:35:48;;;;;;;10.63;4.80;;;;;;;;;;6208469;23;20084;-81
2023/05/30 11:38:21;;;;;;;8.27;5.30;;;;;;;;;;6182559;23;20114;-80
2023/05/30 11:40:46;;;;;;;8.43;4.93;;;;;;;;;;6157919;23;20091;-81
2023/05/30 11:43:14;;;;;;;8.18;5.13;;;;;;;;;;6180831;23;20353;-80
2023/05/30 11:45:40;;;;;;;9.32;5.03;;;;;;;;;;6207784;23;20123;-82
2023/05/30 11:48:06;;;;;;;10.45;6.97;;;;;;;;;;6181431;23;20471;-82
2023/05/30 11:50:38;;;;;;;8.98;4.95;;;;;;;;;;6206184;23;20012;-80
2023/05/30 11:53:13;;;;;;;7.95;5.13;;;;;;;;;;6206569;23;20001;-82
2023/05/30 11:55:38;;;;;;;7.20;5.43;;;;;;;;;;6206419;23;20013;-82
2023/05/30 11:58:04;;;;;;;8.35;5.10;;;;;;;;;;6206792;23;20007;-81
2023/05/30 12:00:31;;;;;;;8.70;5.18;;;;;;;;;;6206879;23;20015;-82
2023/05/30 12:02:56;;;;;;;8.80;5.00;;;;;;;;;;6207554;23;20018;-82
2023/05/30 12:05:22;;;;;;;10.48;5.15;;;;;;;;;;6210199;23;20000;-82
2023/05/30 12:07:52;;;;;;;8.05;4.93;;;;;;;;;;6211329;23;20000;-82
2023/05/30 12:10:27;;;;;;;8.63;5.18;;;;;;;;;;6211245;23;20063;-81
2023/05/30 12:12:52;;;;;;;8.38;4.80;;;;;;;;;;6213016;23;20090;-81
2023/05/30 12:15:18;;;;;;;11.70;5.28;;;;;;;;;;6211248;23;20008;-81
2023/05/30 12:17:45;;;;;;;8.07;5.03;;;;;;;;;;6185681;23;20096;-80
2023/05/30 12:20:13;;;;;;;9.07;4.93;;;;;;;;;;6162545;23;20075;-80
2023/05/30 12:22:43;;;;;;;9.23;5.13;;;;;;;;;;6210971;23;20639;-80
2023/05/30 12:25:09;;;;;;;10.00;5.00;;;;;;;;;;6162509;23;20001;-81
2023/05/30 12:27:34;;;;;;;8.63;5.38;;;;;;;;;;6211485;23;20079;-80
2023/05/30 12:30:19;;;;;;;8.93;4.72;;;;;;;;;;6161350;23;20001;-80
2023/05/30 12:32:47;;;;;;;9.68;5.00;;;;;;;;;;6213392;23;20008;-82
2023/05/30 12:35:13;;;;;;;8.30;4.95;;;;;;;;;;6213040;23;20435;-83
2023/05/30 12:37:38;;;;;;;9.05;5.05;;;;;;;;;;6211472;23;20020;-81
2023/05/30 12:40:05;;;;;;;11.25;5.13;;;;;;;;;;6213024;23;20015;-81
2023/05/30 12:42:31;;;;;;;10.43;5.38;;;;;;;;;;6211286;23;20001;-81
2023/05/30 12:45:01;;;;;;;10.93;5.50;;;;;;;;;;6162265;23;20092;-79
2023/05/30 12:47:26;;;;;;;;;;;;;;;;;;6189022;23;20000;-80
2023/05/30 12:49:52;;;;;;;11.02;5.40;;;;;;;;;;6214972;23;20301;-81
2023/05/30 12:52:19;;;;;;;14.10;5.20;;;;;;;;;;6167011;23;20020;-80
2023/05/30 12:54:45;;;;;;;8.80;5.40;;;;;;;;;;6197319;23;20036;-81
2023/05/30 12:57:10;;;;;;;9.80;5.15;;;;;;;;;;6226661;23;20084;-80
2023/05/30 12:59:39;;;;;;;7.60;5.03;;;;;;;;;;6197769;23;20038;-80
2023/05/30 13:02:05;;;;;;;6.57;5.35;;;;;;;;;;6213352;23;20008;-78
2023/05/30 13:04:31;;;;;;;9.18;5.60;;;;;;;;;;6213409;23;19997;-79
2023/05/30 13:07:00;;;;;;;6.13;4.53;;;;;;;;;;6188271;23;20340;-80
2023/05/30 13:09:25;;;;;;;8.25;5.40;;;;;;;;;;6188262;23;20072;-79
2023/05/30 13:11:51;;;;;;;8.95;5.35;;;;;;;;;;6213202;23;20004;-80
2023/05/30 13:14:17;;;;;;;7.70;5.47;;;;;;;;;;6188134;23;20001;-83
2023/05/30 13:16:43;;;;;;;8.35;5.60;;;;;;;;;;6214578;23;20004;-83
2023/05/30 13:19:09;;;;;;;9.10;5.30;;;;;;;;;;6188377;23;20483;-83
2023/05/30 13:21:38;;;;;;;9.73;5.47;;;;;;;;;;6212949;23;20008;-82
2023/05/30 13:24:04;;;;;;;9.43;5.50;;;;;;;;;;6188200;23;20012;-82
2023/05/30 13:26:29;;;;;;;10.32;5.53;;;;;;;;;;6188633;23;20001;-81
2023/05/30 13:28:55;;;;;;;7.97;5.38;;;;;;;;;;6185550;23;20049;-82
2023/05/30 13:31:20;;;;;;;17.02;5.90;;;;;;;;;;6187475;23;20062;-80
2023/05/30 13:33:47;;;;;;;7.65;5.00;;;;;;;;;;6212852;23;20067;-80
2023/05/30 13:36:12;;;;;;;9.85;5.53;;;;;;;;;;6214386;23;20054;-82
2023/05/30 13:38:39;;;;;;;7.38;5.22;;;;;;;;;;6213059;23;20039;-83
2023/05/30 13:41:05;;;;;;;8.20;5.43;;;;;;;;;;6188814;23;20001;-82
2023/05/30 13:43:30;;;;;;;8.55;5.30;;;;;;;;;;6212921;23;20062;-78
2023/05/30 13:45:56;;;;;;;9.38;5.35;;;;;;;;;;6187762;23;20005;-78
2023/05/30 13:48:21;;;;;;;7.90;4.95;;;;;;;;;;6188173;23;20005;-80
2023/05/30 13:50:47;;;;;;;10.65;5.15;;;;;;;;;;6214825;23;20277;-80
2023/05/30 13:53:13;;;;;;;11.13;5.40;;;;;;;;;;6214512;23;20059;-79
2023/05/30 13:55:38;;;;;;;7.40;5.20;;;;;;;;;;6212429;23;20012;-79
2023/05/30 13:58:04;;;;;;;9.25;5.30;;;;;;;;;;6213566;23;20005;-80
2023/05/30 14:00:29;;;;;;;6.10;4.80;;;;;;;;;;6214757;23;20057;-78
2023/05/30 14:02:55;;;;;;;9.25;6.00;;;;;;;;;;6187859;23;20066;-78
2023/05/30 14:05:20;;;;;;;11.35;5.80;;;;;;;;;;6213275;23;20082;-83
2023/05/30 14:07:49;;;;;;;8.55;5.28;;;;;;;;;;6188392;23;20082;-82
2023/05/30 14:10:18;;;;;;;13.40;6.20;;;;;;;;;;6214186;23;20011;-81
2023/05/30 14:12:44;;;;;;;7.63;5.57;;;;;;;;;;6187874;23;20499;-83
2023/05/30 14:15:11;;;;;;;7.05;5.38;;;;;;;;;;6187646;23;20024;-79
2023/05/30 14:17:40;;;;;;;13.82;6.03;;;;;;;;;;6213294;23;20004;-81
2023/05/30 14:20:06;;;;;;;8.03;5.50;;;;;;;;;;6189213;23;20008;-81
2023/05/30 14:22:32;;;;;;;6.97;5.03;;;;;;;;;;6214620;23;20314;-81
2023/05/30 14:24:58;;;;;;;8.68;6.00;;;;;;;;;;6186988;23;20343;-81
2023/05/30 14:27:23;;;;;;;8.88;5.68;;;;;;;;;;6186308;23;20012;-82
2023/05/30 14:29:50;;;;;;;12.52;5.65;;;;;;;;;;6185054;23;20000;-79
2023/05/30 14:32:15;;;;;;;8.95;5.38;;;;;;;;;;6211853;23;20098;-82
2023/05/30 14:34:41;;;;;;;10.82;5.38;;;;;;;;;;6187500;23;20009;-82
2023/05/30 14:37:07;;;;;;;16.83;5.85;;;;;;;;;;6211582;23;20644;-81
2023/05/30 14:39:33;;;;;;;8.45;5.78;;;;;;;;;;6187619;23;20067;-82